Webcam mot vest more information Webcam facing west


BeaufortBeaufort


Du finner stasjonens værinfo også på:

European Weather Network

WeatherCloud

Weather Underground

HAMweather, WeatherForYou, PWS Weather


Programvare vi bruker:

Weather Display

Leuven-Template 2.8

One.com

Stasjonens lagrede data tekst

Daglig sammendrag for September 18, 2018 enheter:  Metric    Engelsk   Begge
« Forrige Dag
Neste Dag »
Daglig Weekly Månedlig Årlig Custom
  Gjeldene: h√ły: Lav: Snitt:
Temperatur: -13.3 °C -17.8 °C -13.9 °C -12 °C
Duggpunkt: -15.4 °C -17.8 °C -15.9 °C -14.4 °C
Luftfuktighet: 77 % Humidity % 65 % 74 %
Vind: 12.9 km/h 0 km/h 0 km/h 9.8 km/h
Vindkast: 12.9 km/h 0 km/h - -
Vind vesterålen:NE - - SSE
Trykk: 33782.1 hPa 0 hPa 33646.7 hPa -
Nedb√łr: 0 mm      
Historical Graphs
 
 
Tabelldata for September 18, 2018
Tid Temperatur Duggpunkt Trykk Vind vesterålen Vind Vindkast Luftfuktighet Regn Intensitet (Time)
-17.8 °C -17.8 °C 0 hPa Calm     Humidity % 0 mm
00:00 -13.6 °C -15.6 °C 33656.8 hPa ESE 2.6 km/h 5.1 km/h 78 % 0 mm
00:05 -13.6 °C -15.6 °C 33663.6 hPa East 2.6 km/h 2.6 km/h 78 % 0 mm
00:10 -13.6 °C -15.6 °C 33663.6 hPa East 2.6 km/h 2.6 km/h 78 % 0 mm
00:15 -13.6 °C -15.6 °C 33663.6 hPa East 2.6 km/h 2.6 km/h 78 % 0 mm
00:20 -13.6 °C -15.6 °C 33663.6 hPa Calm     78 % 0 mm
00:25 -13.7 °C -15.7 °C 33667 hPa Calm     78 % 0 mm
00:30 -13.7 °C -15.7 °C 33667 hPa Calm     78 % 0 mm
00:35 -13.7 °C -15.7 °C 33667 hPa Calm     78 % 0 mm
00:40 -13.7 °C -15.7 °C 33667 hPa Calm     78 % 0 mm
00:45 -13.7 °C -15.7 °C 33663.6 hPa Calm     78 % 0 mm
00:50 -13.7 °C -15.7 °C 33663.6 hPa Calm   5.1 km/h 78 % 0 mm
00:55 -13.7 °C -15.7 °C 33663.6 hPa Calm   5.1 km/h 78 % 0 mm
01:00 -13.7 °C -15.7 °C 33663.6 hPa Calm     78 % 0 mm
01:05 -13.7 °C -15.7 °C 33656.8 hPa Calm     78 % 0 mm
01:10 -13.8 °C -15.8 °C 33656.8 hPa Calm   2.6 km/h 78 % 0 mm
01:15 -13.8 °C -15.8 °C 33656.8 hPa Calm     78 % 0 mm
01:20 -13.8 °C -15.8 °C 33656.8 hPa Calm     78 % 0 mm
01:25 -13.8 °C -15.8 °C 33656.8 hPa Calm   2.6 km/h 78 % 0 mm
01:30 -13.8 °C -15.9 °C 33656.8 hPa East 2.6 km/h 5.1 km/h 78 % 0 mm
01:35 -13.9 °C -15.9 °C 33656.8 hPa East 2.6 km/h 5.1 km/h 78 % 0 mm
01:40 -13.9 °C -15.9 °C 33656.8 hPa East 2.6 km/h 7.7 km/h 78 % 0 mm
01:45 -13.9 °C -15.9 °C 33656.8 hPa East 2.6 km/h 7.7 km/h 78 % 0 mm
01:50 -13.9 °C -15.9 °C 33656.8 hPa ESE 2.6 km/h 5.1 km/h 78 % 0 mm
01:55 -13.9 °C -15.9 °C 33656.8 hPa ESE 5.1 km/h 10.3 km/h 78 % 0 mm
02:00 -13.7 °C -15.7 °C 33656.8 hPa East 5.1 km/h 10.3 km/h 78 % 0 mm
02:05 -13.7 °C -15.7 °C 33646.7 hPa East 5.1 km/h 10.3 km/h 78 % 0 mm
02:10 -13.6 °C -15.6 °C 33646.7 hPa ESE 2.6 km/h 2.6 km/h 78 % 0 mm
02:15 -13.6 °C -15.6 °C 33646.7 hPa Calm   2.6 km/h 78 % 0 mm
02:20 -13.5 °C -15.5 °C 33646.7 hPa Calm   2.6 km/h 78 % 0 mm
02:25 -13.5 °C -15.5 °C 33650.1 hPa Calm     78 % 0 mm
02:30 -13.5 °C -15.5 °C 33650.1 hPa Calm     78 % 0 mm
02:35 -13.4 °C -15.4 °C 33650.1 hPa ESE 2.6 km/h 5.1 km/h 78 % 0 mm
02:40 -13.4 °C -15.4 °C 33650.1 hPa SE 2.6 km/h 5.1 km/h 78 % 0 mm
02:45 -13.4 °C -15.4 °C 33656.8 hPa ESE 2.6 km/h 5.1 km/h 78 % 0 mm
02:50 -13.4 °C -15.4 °C 33656.8 hPa SE 2.6 km/h 5.1 km/h 78 % 0 mm
02:55 -13.4 °C -15.4 °C 33656.8 hPa SSE 5.1 km/h 12.9 km/h 78 % 0 mm
03:00 -13.4 °C -15.4 °C 33656.8 hPa South 7.7 km/h 18.2 km/h 78 % 0 mm
03:05 -13.3 °C -15.3 °C 33656.8 hPa SSW 12.9 km/h 20.8 km/h 78 % 0 mm
03:10 -13.2 °C -15.2 °C 33656.8 hPa SW 15.6 km/h 23.3 km/h 78 % 0 mm
03:15 -13.2 °C -15.2 °C 33656.8 hPa SW 15.6 km/h 20.8 km/h 78 % 0 mm
03:20 -13.2 °C -15.2 °C 33656.8 hPa SW 12.9 km/h 20.8 km/h 78 % 0 mm
03:25 -13.1 °C -15.1 °C 33656.8 hPa SSW 7.7 km/h 20.8 km/h 78 % 0 mm
03:30 -13.1 °C -15.1 °C 33656.8 hPa SSW 12.9 km/h 20.8 km/h 78 % 0 mm
03:35 -13.1 °C -15.1 °C 33656.8 hPa South 12.9 km/h 15.6 km/h 78 % 0 mm
03:40 -13.1 °C -15.1 °C 33656.8 hPa South 12.9 km/h 15.6 km/h 78 % 0 mm
03:45 -13.2 °C -15.2 °C 33656.8 hPa SSE 7.7 km/h 12.9 km/h 78 % 0 mm
03:50 -13.2 °C -15.2 °C 33656.8 hPa SSE 7.7 km/h 15.6 km/h 78 % 0 mm
03:55 -13.2 °C -15.2 °C 33656.8 hPa SSE 12.9 km/h 18.2 km/h 78 % 0 mm
04:00 -13.2 °C -15.2 °C 33656.8 hPa South 15.6 km/h 23.3 km/h 78 % 0 mm
04:05 -13.2 °C -15.2 °C 33667 hPa South 18.2 km/h 18.2 km/h 78 % 0 mm
04:10 -13.2 °C -15.2 °C 33667 hPa South 18.2 km/h 20.8 km/h 78 % 0 mm
04:15 -13.2 °C -15.2 °C 33667 hPa SSW 18.2 km/h 23.3 km/h 78 % 0 mm
04:20 -13.2 °C -15.2 °C 33667 hPa South 15.6 km/h 23.3 km/h 78 % 0 mm
04:25 -13.2 °C -15.2 °C 33663.6 hPa South 15.6 km/h 23.3 km/h 78 % 0 mm
04:30 -13.2 °C -15.2 °C 33663.6 hPa South 15.6 km/h 23.3 km/h 78 % 0 mm
04:35 -13.2 °C -15.2 °C 33663.6 hPa South 18.2 km/h 25.9 km/h 78 % 0 mm
04:40 -13.2 °C -15.2 °C 33663.6 hPa South 20.8 km/h 23.3 km/h 78 % 0 mm
04:45 -13.2 °C -15.2 °C 33656.8 hPa South 18.2 km/h 20.8 km/h 78 % 0 mm
04:50 -13.2 °C -15.2 °C 33656.8 hPa SSW 15.6 km/h 18.2 km/h 78 % 0 mm
04:55 -13.2 °C -15.2 °C 33656.8 hPa SSW 15.6 km/h 18.2 km/h 78 % 0 mm
05:00 -13.2 °C -15.2 °C 33656.8 hPa South 15.6 km/h 18.2 km/h 78 % 0 mm
05:05 -13.2 °C -15.2 °C 33663.6 hPa South 18.2 km/h 23.3 km/h 78 % 0 mm
05:10 -13.2 °C -15.2 °C 33663.6 hPa South 15.6 km/h 18.2 km/h 78 % 0 mm
05:15 -13.2 °C -15.2 °C 33663.6 hPa South 12.9 km/h 18.2 km/h 78 % 0 mm
05:20 -13.2 °C -15.2 °C 33663.6 hPa SSE 12.9 km/h 15.6 km/h 78 % 0 mm
05:25 -13.1 °C -15.1 °C 33656.8 hPa SE 12.9 km/h 15.6 km/h 78 % 0 mm
05:30 -13.1 °C -15.1 °C 33656.8 hPa SSE 12.9 km/h 15.6 km/h 78 % 0 mm
05:35 -13.1 °C -15.1 °C 33656.8 hPa SSW 15.6 km/h 20.8 km/h 78 % 0 mm
05:40 -13 °C -15.1 °C 33656.8 hPa SSW 15.6 km/h 23.3 km/h 78 % 0 mm
05:45 -13 °C -15 °C 33660.2 hPa South 15.6 km/h 23.3 km/h 78 % 0 mm
05:50 -12.9 °C -14.9 °C 33660.2 hPa South 18.2 km/h 20.8 km/h 78 % 0 mm
05:55 -12.9 °C -14.9 °C 33660.2 hPa South 18.2 km/h 25.9 km/h 78 % 0 mm
06:00 -12.9 °C -14.9 °C 33660.2 hPa South 15.6 km/h 25.9 km/h 78 % 0 mm
06:05 -12.9 °C -14.9 °C 33663.6 hPa South 15.6 km/h 18.2 km/h 78 % 0 mm
06:10 -12.9 °C -14.9 °C 33663.6 hPa SSE 12.9 km/h 18.2 km/h 78 % 0 mm
06:15 -13.1 °C -15.1 °C 33663.6 hPa SSE 12.9 km/h 15.6 km/h 78 % 0 mm
06:20 -13.1 °C -15.2 °C 33663.6 hPa SSE 7.7 km/h 10.3 km/h 78 % 0 mm
06:25 -13.3 °C -15.3 °C 33663.6 hPa SE 5.1 km/h 7.7 km/h 78 % 0 mm
06:30 -13.4 °C -15.4 °C 33663.6 hPa ESE 5.1 km/h 7.7 km/h 78 % 0 mm
06:35 -13.5 °C -15.5 °C 33663.6 hPa ESE 5.1 km/h 7.7 km/h 78 % 0 mm
06:40 -13.6 °C -15.6 °C 33663.6 hPa ESE 5.1 km/h 7.7 km/h 78 % 0 mm
06:45 -13.6 °C -15.6 °C 33667 hPa ESE 5.1 km/h 7.7 km/h 78 % 0 mm
06:50 -13.6 °C -15.6 °C 33667 hPa SE 5.1 km/h 7.7 km/h 78 % 0 mm
06:55 -13.5 °C -15.5 °C 33667 hPa SSE 7.7 km/h 18.2 km/h 78 % 0 mm
07:00 -13.4 °C -15.4 °C 33667 hPa South 15.6 km/h 23.3 km/h 78 % 0 mm
07:05 -13.2 °C -15.2 °C 33673.8 hPa South 18.2 km/h 20.8 km/h 78 % 0 mm
07:10 -13.2 °C -15.2 °C 33673.8 hPa South 15.6 km/h 18.2 km/h 78 % 0 mm
07:15 -13.2 °C -15.2 °C 33673.8 hPa South 15.6 km/h 18.2 km/h 78 % 0 mm
07:20 -13.1 °C -15.1 °C 33673.8 hPa South 12.9 km/h 15.6 km/h 78 % 0 mm
07:25 -13.1 °C -15.1 °C 33677.2 hPa South 12.9 km/h 15.6 km/h 78 % 0 mm
07:30 -13.1 °C -15.1 °C 33677.2 hPa SSE 7.7 km/h 15.6 km/h 78 % 0 mm
07:35 -13.1 °C -15.1 °C 33677.2 hPa SSE 5.1 km/h 7.7 km/h 78 % 0 mm
07:40 -13.2 °C -15.2 °C 33677.2 hPa SE 5.1 km/h 7.7 km/h 78 % 0 mm
07:45 -13.2 °C -15.2 °C 33680.5 hPa SE 2.6 km/h 5.1 km/h 78 % 0 mm
07:50 -13.2 °C -15.2 °C 33680.5 hPa SSE 5.1 km/h 7.7 km/h 78 % 0 mm
07:55 -13.1 °C -15.1 °C 33680.5 hPa SE 5.1 km/h 7.7 km/h 78 % 0 mm
08:00 -13.1 °C -15.1 °C 33680.5 hPa ESE 5.1 km/h 7.7 km/h 78 % 0 mm
08:05 -13.1 °C -15.1 °C 33683.9 hPa ESE 5.1 km/h 5.1 km/h 78 % 0 mm
08:10 -12.9 °C -14.9 °C 33683.9 hPa ESE 2.6 km/h 5.1 km/h 78 % 0 mm
08:15 -12.6 °C -14.6 °C 33683.9 hPa Calm   2.6 km/h 78 % 0 mm
08:20 -12.4 °C -14.5 °C 33683.9 hPa ESE 2.6 km/h 2.6 km/h 78 % 0 mm
08:25 -12.3 °C -14.3 °C 33690.7 hPa ESE 2.6 km/h 5.1 km/h 78 % 0 mm
08:30 -12.3 °C -14.3 °C 33690.7 hPa ESE 2.6 km/h 5.1 km/h 78 % 0 mm
08:35 -12.2 °C -14.3 °C 33690.7 hPa SE 2.6 km/h 5.1 km/h 78 % 0 mm
08:40 -12.1 °C -14.1 °C 33690.7 hPa SSE 2.6 km/h 10.3 km/h 78 % 0 mm
08:45 -11.9 °C -14.1 °C 33697.5 hPa South 5.1 km/h 12.9 km/h 77 % 0 mm
08:50 -11.8 °C -14 °C 33697.5 hPa South 7.7 km/h 15.6 km/h 77 % 0 mm
08:55 -11.8 °C -13.9 °C 33697.5 hPa South 12.9 km/h 18.2 km/h 77 % 0 mm
09:00 -11.6 °C -13.8 °C 33697.5 hPa South 12.9 km/h 15.6 km/h 77 % 0 mm
09:05 -11.4 °C -13.6 °C 33711 hPa South 12.9 km/h 20.8 km/h 77 % 0 mm
09:10 -11.4 °C -13.6 °C 33711 hPa South 12.9 km/h 20.8 km/h 77 % 0 mm
09:15 -11.4 °C -13.6 °C 33711 hPa SSE 12.9 km/h 12.9 km/h 77 % 0 mm
09:20 -11.4 °C -13.6 °C 33711 hPa SSE 12.9 km/h 15.6 km/h 77 % 0 mm
09:25 -11.4 °C -13.6 °C 33717.8 hPa SSE 7.7 km/h 15.6 km/h 77 % 0 mm
09:30 -11.4 °C -13.6 °C 33717.8 hPa SE 7.7 km/h 15.6 km/h 77 % 0 mm
09:35 -11.3 °C -13.6 °C 33717.8 hPa SSE 7.7 km/h 12.9 km/h 76 % 0 mm
09:40 -11.2 °C -13.5 °C 33717.8 hPa SSE 7.7 km/h 15.6 km/h 76 % 0 mm
09:45 -11.2 °C -13.4 °C 33717.8 hPa SE 7.7 km/h 12.9 km/h 76 % 0 mm
09:50 -11.2 °C -13.4 °C 33717.8 hPa SE 7.7 km/h 18.2 km/h 76 % 0 mm
09:55 -11 °C -13.3 °C 33717.8 hPa SSE 7.7 km/h 12.9 km/h 76 % 0 mm
10:00 -10.9 °C -13.2 °C 33717.8 hPa SSE 12.9 km/h 15.6 km/h 76 % 0 mm
10:05 -10.9 °C -13.3 °C 33714.4 hPa South 12.9 km/h 18.2 km/h 75 % 0 mm
10:10 -10.9 °C -13.3 °C 33714.4 hPa South 7.7 km/h 18.2 km/h 75 % 0 mm
10:15 -10.8 °C -13.2 °C 33714.4 hPa SSE 12.9 km/h 18.2 km/h 75 % 0 mm
10:20 -10.8 °C -13.2 °C 33714.4 hPa SSE 7.7 km/h 18.2 km/h 75 % 0 mm
10:25 -10.7 °C -13.1 °C 33714.4 hPa SSE 7.7 km/h 12.9 km/h 75 % 0 mm
10:30 -10.6 °C -13.2 °C 33714.4 hPa SSE 7.7 km/h 18.2 km/h 74 % 0 mm
10:35 -10.6 °C -13.1 °C 33714.4 hPa SSE 12.9 km/h 18.2 km/h 74 % 0 mm
10:40 -10.6 °C -13.2 °C 33714.4 hPa SSE 12.9 km/h 18.2 km/h 73 % 0 mm
10:45 -10.6 °C -13.2 °C 33717.8 hPa SSE 12.9 km/h 15.6 km/h 73 % 0 mm
10:50 -10.6 °C -13.2 °C 33717.8 hPa SSE 12.9 km/h 15.6 km/h 73 % 0 mm
10:55 -10.5 °C -13.1 °C 33717.8 hPa SSE 7.7 km/h 15.6 km/h 73 % 0 mm
11:00 -10.4 °C -13.1 °C 33717.8 hPa SSE 7.7 km/h 18.2 km/h 73 % 0 mm
11:05 -10.4 °C -13.2 °C 33724.6 hPa SSE 12.9 km/h 18.2 km/h 72 % 0 mm
11:10 -10.4 °C -13.2 °C 33724.6 hPa SSE 15.6 km/h 15.6 km/h 72 % 0 mm
11:15 -10.3 °C -13.2 °C 33724.6 hPa SSE 12.9 km/h 15.6 km/h 71 % 0 mm
11:20 -10.3 °C -13.2 °C 33724.6 hPa SSE 12.9 km/h 12.9 km/h 71 % 0 mm
11:25 -10.4 °C -13.2 °C 33724.6 hPa SSE 7.7 km/h 12.9 km/h 71 % 0 mm
11:30 -10.4 °C -13.2 °C 33724.6 hPa SSE 7.7 km/h 7.7 km/h 71 % 0 mm
11:35 -10.5 °C -13.5 °C 33724.6 hPa SSE 12.9 km/h 15.6 km/h 70 % 0 mm
11:40 -10.6 °C -13.5 °C 33724.6 hPa SSE 12.9 km/h 15.6 km/h 70 % 0 mm
11:45 -10.5 °C -13.5 °C 33731.3 hPa SSE 12.9 km/h 18.2 km/h 70 % 0 mm
11:50 -10.4 °C -13.4 °C 33731.3 hPa South 12.9 km/h 18.2 km/h 70 % 0 mm
11:55 -10.4 °C -13.4 °C 33731.3 hPa South 12.9 km/h 20.8 km/h 70 % 0 mm
12:00 -10.5 °C -13.5 °C 33731.3 hPa SSE 15.6 km/h 23.3 km/h 70 % 0 mm
12:05 -10.4 °C -13.4 °C 33734.7 hPa South 15.6 km/h 18.2 km/h 70 % 0 mm
12:10 -10.4 °C -13.4 °C 33734.7 hPa South 15.6 km/h 25.9 km/h 70 % 0 mm
12:15 -10.4 °C -13.4 °C 33734.7 hPa South 15.6 km/h 31.1 km/h 70 % 0 mm
12:20 -10.4 °C -13.4 °C 33734.7 hPa SSE 18.2 km/h 25.9 km/h 70 % 0 mm
12:25 -10.4 °C -13.4 °C 33741.5 hPa South 18.2 km/h 25.9 km/h 70 % 0 mm
12:30 -10.4 °C -13.3 °C 33741.5 hPa South 15.6 km/h 25.9 km/h 70 % 0 mm
12:35 -10.1 °C -13.1 °C 33741.5 hPa South 15.6 km/h 23.3 km/h 70 % 0 mm
12:40 -10.1 °C -13 °C 33741.5 hPa South 18.2 km/h 25.9 km/h 70 % 0 mm
12:45 -9.9 °C -12.9 °C 33741.5 hPa South 18.2 km/h 25.9 km/h 70 % 0 mm
12:50 -9.8 °C -12.9 °C 33741.5 hPa South 18.2 km/h 23.3 km/h 69 % 0 mm
12:55 -9.8 °C -13 °C 33741.5 hPa South 18.2 km/h 25.9 km/h 68 % 0 mm
13:00 -9.8 °C -13 °C 33741.5 hPa South 15.6 km/h 20.8 km/h 68 % 0 mm
13:05 -9.7 °C -12.9 °C 33758.4 hPa South 18.2 km/h 23.3 km/h 68 % 0 mm
13:10 -9.6 °C -13 °C 33758.4 hPa South 18.2 km/h 23.3 km/h 67 % 0 mm
13:15 -9.6 °C -13.1 °C 33758.4 hPa South 18.2 km/h 25.9 km/h 66 % 0 mm
13:20 -9.6 °C -13.1 °C 33758.4 hPa South 18.2 km/h 25.9 km/h 66 % 0 mm
13:25 -9.6 °C -13.1 °C 33772 hPa South 18.2 km/h 20.8 km/h 66 % 0 mm
13:30 -9.6 °C -13.1 °C 33772 hPa South 15.6 km/h 20.8 km/h 66 % 0 mm
13:35 -9.7 °C -13.3 °C 33772 hPa South 15.6 km/h 20.8 km/h 65 % 0 mm
13:40 -9.7 °C -13.3 °C 33772 hPa South 15.6 km/h 18.2 km/h 65 % 0 mm
13:45 -9.7 °C -13.3 °C 33782.1 hPa South 15.6 km/h 23.3 km/h 65 % 0 mm
13:50 -9.8 °C -13.4 °C 33782.1 hPa South 18.2 km/h 23.3 km/h 65 % 0 mm
13:55 -9.7 °C -13.2 °C 33782.1 hPa South 20.8 km/h 31.1 km/h 66 % 0 mm
14:00 -9.6 °C -13.1 °C 33782.1 hPa South 20.8 km/h 31.1 km/h 66 % 0 mm
14:05 -9.6 °C -13.1 °C 33792.3 hPa South 20.8 km/h 28.5 km/h 66 % 0 mm
14:10 -9.6 °C -13.1 °C 33792.3 hPa South 20.8 km/h 33.6 km/h 66 % 0 mm
14:15 -9.7 °C -13.2 °C 33792.3 hPa SSE 20.8 km/h 33.6 km/h 66 % 0 mm
14:20 -9.7 °C -13.3 °C 33792.3 hPa SSE 20.8 km/h 20.8 km/h 65 % 0 mm
14:25 -9.6 °C -13.1 °C 33799.1 hPa SSE 15.6 km/h 20.8 km/h 66 % 0 mm
14:30 -9.6 °C -13.1 °C 33799.1 hPa South 15.6 km/h 20.8 km/h 66 % 0 mm
14:35 -9.6 °C -13.1 °C 33799.1 hPa South 15.6 km/h 18.2 km/h 66 % 0 mm
14:40 -9.7 °C -13.3 °C 33799.1 hPa South 18.2 km/h 20.8 km/h 65 % 0 mm
14:45 -9.8 °C -13.4 °C 33809.2 hPa South 18.2 km/h 20.8 km/h 65 % 0 mm
14:50 -9.7 °C -13.2 °C 33809.2 hPa SSE 15.6 km/h 20.8 km/h 66 % 0 mm
14:55 -9.7 °C -13.2 °C 33809.2 hPa SSE 15.6 km/h 20.8 km/h 66 % 0 mm
15:00 -9.8 °C -13.2 °C 33809.2 hPa South 15.6 km/h 18.2 km/h 66 % 0 mm
15:05 -9.8 °C -13.3 °C 33816 hPa South 15.6 km/h 25.9 km/h 66 % 0 mm
15:10 -9.9 °C -13.4 °C 33816 hPa SSE 15.6 km/h 18.2 km/h 66 % 0 mm
15:15 -9.9 °C -13.4 °C 33816 hPa South 15.6 km/h 20.8 km/h 66 % 0 mm
15:20 -9.9 °C -13.3 °C 33816 hPa South 18.2 km/h 25.9 km/h 67 % 0 mm
15:25 -9.9 °C -13.2 °C 33809.2 hPa South 18.2 km/h 18.2 km/h 67 % 0 mm
15:30 -9.9 °C -13.2 °C 33809.2 hPa South 18.2 km/h 23.3 km/h 67 % 0 mm
15:35 -9.8 °C -13.1 °C 33809.2 hPa South 18.2 km/h 20.8 km/h 68 % 0 mm
15:40 -9.8 °C -13.2 °C 33809.2 hPa South 18.2 km/h 23.3 km/h 67 % 0 mm
15:45 -9.8 °C -13.2 °C 33812.6 hPa South 18.2 km/h 15.6 km/h 67 % 0 mm
15:50 -9.8 °C -13.2 °C 33812.6 hPa South 15.6 km/h 20.8 km/h 67 % 0 mm
15:55 -10 °C -13.4 °C 33812.6 hPa South 15.6 km/h 20.8 km/h 67 % 0 mm
16:00 -10.1 °C -13.4 °C 33812.6 hPa South 12.9 km/h 18.2 km/h 67 % 0 mm
16:05 -10.2 °C -13.5 °C 33819.4 hPa South 12.9 km/h 15.6 km/h 67 % 0 mm
16:10 -10.2 °C -13.4 °C 33819.4 hPa South 12.9 km/h 18.2 km/h 68 % 0 mm
16:15 -10.2 °C -13.4 °C 33819.4 hPa South 12.9 km/h 15.6 km/h 68 % 0 mm
16:20 -10.2 °C -13.4 °C 33819.4 hPa South 15.6 km/h 18.2 km/h 68 % 0 mm
16:25 -10.2 °C -13.4 °C 33826.1 hPa South 15.6 km/h 23.3 km/h 68 % 0 mm
16:30 -10.2 °C -13.4 °C 33826.1 hPa South 15.6 km/h 23.3 km/h 68 % 0 mm
16:35 -10.2 °C -13.4 °C 33826.1 hPa SSW 15.6 km/h 18.2 km/h 68 % 0 mm
16:40 -10.2 °C -13.4 °C 33826.1 hPa South 12.9 km/h 18.2 km/h 68 % 0 mm
16:45 -10.3 °C -13.5 °C 33832.9 hPa South 15.6 km/h 18.2 km/h 68 % 0 mm
16:50 -10.3 °C -13.5 °C 33832.9 hPa South 15.6 km/h 18.2 km/h 68 % 0 mm
16:55 -10.3 °C -13.5 °C 33832.9 hPa South 12.9 km/h 18.2 km/h 68 % 0 mm
17:00 -10.3 °C -13.5 °C 33832.9 hPa South 12.9 km/h 15.6 km/h 68 % 0 mm
17:05 -10.3 °C -13.5 °C 33843.1 hPa South 12.9 km/h 15.6 km/h 68 % 0 mm
17:10 -10.4 °C -13.6 °C 33843.1 hPa SSW 12.9 km/h 15.6 km/h 68 % 0 mm
17:15 -10.5 °C -13.7 °C 33843.1 hPa South 12.9 km/h 15.6 km/h 68 % 0 mm
17:20 -10.7 °C -13.9 °C 33843.1 hPa South 12.9 km/h 15.6 km/h 68 % 0 mm
17:25 -10.8 °C -13.9 °C 33843.1 hPa South 7.7 km/h 12.9 km/h 69 % 0 mm
17:30 -10.9 °C -13.9 °C 33843.1 hPa SSE 7.7 km/h 12.9 km/h 69 % 0 mm
17:35 -10.9 °C -14 °C 33843.1 hPa SSE 5.1 km/h 7.7 km/h 69 % 0 mm
17:40 -11 °C -14.1 °C 33843.1 hPa SE 2.6 km/h 5.1 km/h 69 % 0 mm
17:45 -11.1 °C -14 °C 33843.1 hPa SE 2.6 km/h 5.1 km/h 70 % 0 mm
17:50 -11.1 °C -14 °C 33843.1 hPa SSE 2.6 km/h 5.1 km/h 70 % 0 mm
17:55 -11.1 °C -14.1 °C 33843.1 hPa South 2.6 km/h 7.7 km/h 70 % 0 mm
18:00 -11.2 °C -14.1 °C 33843.1 hPa SSE 5.1 km/h 7.7 km/h 70 % 0 mm
18:05 -11.2 °C -14.1 °C 33846.5 hPa SE 5.1 km/h 5.1 km/h 70 % 0 mm
18:10 -11.3 °C -14.1 °C 33846.5 hPa SE 2.6 km/h 2.6 km/h 71 % 0 mm
18:15 -11.3 °C -14.2 °C 33846.5 hPa ESE 2.6 km/h 2.6 km/h 71 % 0 mm
18:20 -11.4 °C -14.2 °C 33846.5 hPa Calm   2.6 km/h 71 % 0 mm
18:25 -11.5 °C -14.3 °C 33843.1 hPa Calm   2.6 km/h 71 % 0 mm
18:30 -11.6 °C -14.4 °C 33843.1 hPa Calm   7.7 km/h 71 % 0 mm
18:35 -11.6 °C -14.4 °C 33843.1 hPa SSE 2.6 km/h 7.7 km/h 71 % 0 mm
18:40 -11.6 °C -14.3 °C 33843.1 hPa South 5.1 km/h 7.7 km/h 72 % 0 mm
18:45 -11.7 °C -14.4 °C 33832.9 hPa South 5.1 km/h 5.1 km/h 72 % 0 mm
18:50 -11.8 °C -14.6 °C 33832.9 hPa South 2.6 km/h 7.7 km/h 72 % 0 mm
18:55 -11.9 °C -14.6 °C 33832.9 hPa SSE 2.6 km/h 5.1 km/h 72 % 0 mm
19:00 -12.1 °C -14.7 °C 33832.9 hPa ESE 2.6 km/h 5.1 km/h 72 % 0 mm
19:05 -12.2 °C -14.8 °C 33836.3 hPa SE 5.1 km/h 5.1 km/h 72 % 0 mm
19:10 -12.3 °C -14.8 °C 33836.3 hPa SE 2.6 km/h 5.1 km/h 73 % 0 mm
19:15 -12.3 °C -14.8 °C 33836.3 hPa SE 2.6 km/h 2.6 km/h 73 % 0 mm
19:20 -12.3 °C -14.8 °C 33836.3 hPa SE 2.6 km/h 2.6 km/h 74 % 0 mm
19:25 -12.4 °C -14.9 °C 33822.8 hPa SE 2.6 km/h 5.1 km/h 74 % 0 mm
19:30 -12.6 °C -14.9 °C 33822.8 hPa SE 2.6 km/h 5.1 km/h 74 % 0 mm
19:35 -12.6 °C -15.1 °C 33822.8 hPa ESE 5.1 km/h 5.1 km/h 74 % 0 mm
19:40 -12.7 °C -15.1 °C 33822.8 hPa ENE 5.1 km/h 7.7 km/h 74 % 0 mm
19:45 -12.7 °C -15 °C 33826.1 hPa NE 5.1 km/h 10.3 km/h 75 % 0 mm
19:50 -12.7 °C -15.1 °C 33826.1 hPa ENE 5.1 km/h 10.3 km/h 75 % 0 mm
19:55 -12.8 °C -15.2 °C 33826.1 hPa East 5.1 km/h 7.7 km/h 75 % 0 mm
20:00 -12.8 °C -15.2 °C 33826.1 hPa East 5.1 km/h 7.7 km/h 75 % 0 mm
20:05 -13 °C -15.3 °C 33819.4 hPa ESE 5.1 km/h 7.7 km/h 75 % 0 mm
20:10 -13.1 °C -15.4 °C 33819.4 hPa ESE 5.1 km/h 12.9 km/h 75 % 0 mm
20:15 -13.1 °C -15.4 °C 33819.4 hPa East 7.7 km/h 12.9 km/h 75 % 0 mm
20:20 -13.1 °C -15.3 °C 33819.4 hPa East 7.7 km/h 12.9 km/h 76 % 0 mm
20:25 -13.1 °C -15.3 °C 33826.1 hPa East 7.7 km/h 12.9 km/h 76 % 0 mm
20:30 -13.1 °C -15.3 °C 33826.1 hPa East 7.7 km/h 7.7 km/h 76 % 0 mm
20:35 -13.1 °C -15.3 °C 33826.1 hPa East 5.1 km/h 7.7 km/h 76 % 0 mm
20:40 -13.1 °C -15.3 °C 33826.1 hPa East 5.1 km/h 7.7 km/h 76 % 0 mm
20:45 -13.1 °C -15.2 °C 33819.4 hPa East 7.7 km/h 7.7 km/h 77 % 0 mm
20:50 -13.1 °C -15.2 °C 33819.4 hPa ENE 7.7 km/h 12.9 km/h 77 % 0 mm
20:55 -13.1 °C -15.2 °C 33819.4 hPa East 7.7 km/h 12.9 km/h 77 % 0 mm
21:00 -13 °C -15.1 °C 33819.4 hPa East 7.7 km/h 12.9 km/h 77 % 0 mm
21:05 -13 °C -15.1 °C 33822.8 hPa ENE 7.7 km/h 12.9 km/h 77 % 0 mm
21:10 -13 °C -15.1 °C 33822.8 hPa ENE 7.7 km/h 15.6 km/h 77 % 0 mm
21:15 -12.9 °C -15.1 °C 33822.8 hPa ENE 7.7 km/h 15.6 km/h 77 % 0 mm
21:20 -13.1 °C -15.2 °C 33822.8 hPa East 5.1 km/h 7.7 km/h 77 % 0 mm
21:25 -13.1 °C -15.2 °C 33822.8 hPa East 5.1 km/h 7.7 km/h 77 % 0 mm
21:30 -13.1 °C -15.2 °C 33822.8 hPa East 5.1 km/h 5.1 km/h 77 % 0 mm
21:35 -13.2 °C -15.3 °C 33822.8 hPa East 5.1 km/h 15.6 km/h 77 % 0 mm
21:40 -13.2 °C -15.3 °C 33822.8 hPa ENE 5.1 km/h 15.6 km/h 77 % 0 mm
21:45 -13.2 °C -15.3 °C 33812.6 hPa ENE 5.1 km/h 12.9 km/h 77 % 0 mm
21:50 -13.1 °C -15.2 °C 33812.6 hPa NE 7.7 km/h 12.9 km/h 77 % 0 mm
21:55 -13.1 °C -15.2 °C 33812.6 hPa NE 5.1 km/h 10.3 km/h 77 % 0 mm
22:00 -13.1 °C -15.2 °C 33812.6 hPa NE 7.7 km/h 12.9 km/h 77 % 0 mm
22:05 -13.1 °C -15.2 °C 33812.6 hPa NE 7.7 km/h 12.9 km/h 77 % 0 mm
22:10 -13.2 °C -15.3 °C 33812.6 hPa NNE 7.7 km/h 12.9 km/h 77 % 0 mm
22:15 -13.2 °C -15.3 °C 33812.6 hPa NE 12.9 km/h 15.6 km/h 77 % 0 mm
22:20 -13.2 °C -15.3 °C 33812.6 hPa NE 12.9 km/h 15.6 km/h 77 % 0 mm
22:25 -13.1 °C -15.2 °C 33799.1 hPa NE 12.9 km/h 20.8 km/h 77 % 0 mm
22:30 -13.2 °C -15.2 °C 33799.1 hPa NE 15.6 km/h 20.8 km/h 77 % 0 mm
22:35 -13.2 °C -15.3 °C 33799.1 hPa NE 15.6 km/h 20.8 km/h 77 % 0 mm
22:40 -13.2 °C -15.3 °C 33799.1 hPa NE 12.9 km/h 18.2 km/h 77 % 0 mm
22:45 -13.2 °C -15.3 °C 33782.1 hPa NE 12.9 km/h 18.2 km/h 77 % 0 mm
22:50 -13.2 °C -15.3 °C 33782.1 hPa NE 12.9 km/h 18.2 km/h 77 % 0 mm
22:55 -13.3 °C -15.4 °C 33782.1 hPa NE 12.9 km/h 12.9 km/h 77 % 0 mm
vindpropell
Compliments of Weather Underground - 3.75 mb

Script utviklet av  Jim McMurry - jmcmurry@mwt.net Tilpasset for tamplaten av  Wim van der Kuil - Leuven-Template.eu